createdAt,value
2019-01-11T00:00:37.821Z,18.14
2019-01-11T00:01:38.084Z,18.12
2019-01-11T00:02:39.657Z,18.12
2019-01-11T00:03:37.588Z,18.13
2019-01-11T00:04:37.688Z,18.12
2019-01-11T00:05:37.840Z,18.11
2019-01-11T00:06:37.683Z,18.11
2019-01-11T00:07:37.895Z,18.1
2019-01-11T00:08:37.539Z,18.09
2019-01-11T00:09:37.873Z,18.1
2019-01-11T00:10:37.652Z,18.09
2019-01-11T00:11:37.722Z,18.08
2019-01-11T00:12:37.897Z,18.08
2019-01-11T00:13:38.061Z,18.1
2019-01-11T00:14:37.912Z,18.07
2019-01-11T00:15:37.918Z,18.06
2019-01-11T00:16:37.399Z,18.07
2019-01-11T00:17:37.826Z,18.07
2019-01-11T00:18:37.931Z,18.05
2019-01-11T00:19:37.599Z,18.04
2019-01-11T00:20:37.562Z,18.05
2019-01-11T00:21:37.435Z,18.03
2019-01-11T00:22:37.460Z,18.03
2019-01-11T00:23:37.540Z,18.01
2019-01-11T00:24:37.590Z,18.04
2019-01-11T00:25:37.455Z,18.02
2019-01-11T00:26:39.829Z,18.02
2019-01-11T00:27:37.748Z,18.01
2019-01-11T00:28:37.851Z,18.02
2019-01-11T00:29:37.574Z,18.01
2019-01-11T00:30:37.364Z,18.02
2019-01-11T00:31:37.664Z,18
2019-01-11T00:32:37.830Z,18
2019-01-11T00:33:37.529Z,17.99
2019-01-11T00:34:37.873Z,17.98
2019-01-11T00:35:37.690Z,17.99
2019-01-11T00:36:37.932Z,17.98
2019-01-11T00:37:37.473Z,17.98
2019-01-11T00:38:38.002Z,17.97
2019-01-11T00:39:37.560Z,17.96
2019-01-11T00:40:38.104Z,17.96
2019-01-11T00:41:38.098Z,17.97
2019-01-11T00:42:37.728Z,17.96
2019-01-11T00:43:37.544Z,17.96
2019-01-11T00:44:37.872Z,17.95
2019-01-11T00:45:37.858Z,17.95
2019-01-11T00:46:37.789Z,17.94
2019-01-11T00:47:37.559Z,17.94
2019-01-11T00:48:38.021Z,17.94
2019-01-11T00:49:37.610Z,17.93
2019-01-11T00:50:37.447Z,17.94
2019-01-11T00:51:37.582Z,17.92
2019-01-11T00:52:37.700Z,17.93
2019-01-11T00:53:38.066Z,17.93
2019-01-11T00:54:38.256Z,17.93
2019-01-11T00:55:37.790Z,17.92
2019-01-11T00:56:37.626Z,17.91
2019-01-11T00:57:37.680Z,17.9
2019-01-11T00:58:37.768Z,17.9
2019-01-11T00:59:38.044Z,17.91
2019-01-11T01:00:37.554Z,17.91
2019-01-11T01:01:37.651Z,17.89
2019-01-11T01:02:37.618Z,17.9
2019-01-11T01:03:37.703Z,17.9
2019-01-11T01:04:37.662Z,17.89
2019-01-11T01:05:37.716Z,17.89
2019-01-11T01:06:37.657Z,17.87
2019-01-11T01:07:37.642Z,17.87
2019-01-11T01:08:37.984Z,17.87
2019-01-11T01:09:37.456Z,17.86
2019-01-11T01:10:37.566Z,17.86
2019-01-11T01:11:37.551Z,17.87
2019-01-11T01:12:37.549Z,17.86
2019-01-11T01:13:37.794Z,17.86
2019-01-11T01:14:37.928Z,17.86
2019-01-11T01:15:37.584Z,17.85
2019-01-11T01:16:37.555Z,17.85
2019-01-11T01:17:37.701Z,17.85
2019-01-11T01:18:38.275Z,17.85
2019-01-11T01:19:37.701Z,17.83
2019-01-11T01:20:38.006Z,17.84
2019-01-11T01:21:37.953Z,17.84
2019-01-11T01:22:38.049Z,17.82
2019-01-11T01:23:38.300Z,17.82
2019-01-11T01:24:37.470Z,17.8
2019-01-11T01:25:38.676Z,17.81
2019-01-11T01:26:37.606Z,17.81
2019-01-11T01:27:37.813Z,17.8
2019-01-11T01:28:37.924Z,17.82
2019-01-11T01:29:37.950Z,17.8
2019-01-11T01:30:37.996Z,17.8
2019-01-11T01:31:37.696Z,17.8
2019-01-11T01:32:38.013Z,17.8
2019-01-11T01:33:37.683Z,17.78
2019-01-11T01:34:37.828Z,17.79
2019-01-11T01:35:37.891Z,17.77
2019-01-11T01:36:37.655Z,17.78
2019-01-11T01:37:38.340Z,17.78
2019-01-11T01:38:37.649Z,17.77
2019-01-11T01:39:37.904Z,17.77
2019-01-11T01:40:37.839Z,17.78
2019-01-11T01:41:37.494Z,17.77
2019-01-11T01:42:37.383Z,17.78
2019-01-11T01:43:37.460Z,17.77
2019-01-11T01:44:37.570Z,17.76
2019-01-11T01:45:37.940Z,17.76
2019-01-11T01:46:37.948Z,17.75
2019-01-11T01:47:37.835Z,17.75
2019-01-11T01:48:37.569Z,17.75
2019-01-11T01:49:37.974Z,17.75
2019-01-11T01:50:37.530Z,17.76
2019-01-11T01:51:39.416Z,17.74
2019-01-11T01:52:37.617Z,17.74
2019-01-11T01:53:37.717Z,17.75
2019-01-11T01:54:37.802Z,17.72
2019-01-11T01:55:37.925Z,17.74
2019-01-11T01:56:37.619Z,17.74
2019-01-11T01:57:38.045Z,17.72
2019-01-11T01:58:37.567Z,17.72
2019-01-11T01:59:37.536Z,17.72
2019-01-11T02:00:37.506Z,17.73
2019-01-11T02:01:37.705Z,17.72
2019-01-11T02:02:37.529Z,17.72
2019-01-11T02:03:38.377Z,17.71
2019-01-11T02:04:37.760Z,17.72
2019-01-11T02:05:37.738Z,17.7
2019-01-11T02:06:37.599Z,17.7
2019-01-11T02:07:38.017Z,17.7
2019-01-11T02:08:38.141Z,17.71
2019-01-11T02:09:37.766Z,17.69
2019-01-11T02:10:37.719Z,17.7
2019-01-11T02:11:37.833Z,17.69
2019-01-11T02:12:37.959Z,17.69
2019-01-11T02:13:37.637Z,17.68
2019-01-11T02:14:37.665Z,17.67
2019-01-11T02:15:37.606Z,17.66
2019-01-11T02:16:37.799Z,17.67
2019-01-11T02:17:37.610Z,17.66
2019-01-11T02:18:37.350Z,17.65
2019-01-11T02:19:38.514Z,17.65
2019-01-11T02:20:37.653Z,17.65
2019-01-11T02:21:37.385Z,17.65
2019-01-11T02:22:37.552Z,17.66
2019-01-11T02:23:37.914Z,17.65
2019-01-11T02:24:37.796Z,17.64
2019-01-11T02:25:37.720Z,17.65
2019-01-11T02:26:37.919Z,17.64
2019-01-11T02:27:37.745Z,17.65
2019-01-11T02:28:37.858Z,17.64
2019-01-11T02:29:37.681Z,17.63
2019-01-11T02:30:37.762Z,17.62
2019-01-11T02:31:37.498Z,17.63
2019-01-11T02:32:37.738Z,17.63
2019-01-11T02:33:37.863Z,17.63
2019-01-11T02:34:37.765Z,17.62
2019-01-11T02:35:39.333Z,17.62
2019-01-11T02:36:37.447Z,17.6
2019-01-11T02:37:37.659Z,17.61
2019-01-11T02:38:37.740Z,17.6
2019-01-11T02:39:37.585Z,17.6
2019-01-11T02:40:37.819Z,17.6
2019-01-11T02:41:37.926Z,17.6
2019-01-11T02:42:37.577Z,17.59
2019-01-11T02:43:37.571Z,17.59
2019-01-11T02:44:37.645Z,17.58
2019-01-11T02:45:37.628Z,17.58
2019-01-11T02:46:37.530Z,17.59
2019-01-11T02:47:38.168Z,17.57
2019-01-11T02:48:37.791Z,17.57
2019-01-11T02:49:40.140Z,17.56
2019-01-11T02:50:37.780Z,17.56
2019-01-11T02:51:37.613Z,17.55
2019-01-11T02:52:37.671Z,17.55
2019-01-11T02:53:37.532Z,17.56
2019-01-11T02:54:37.600Z,17.56
2019-01-11T02:55:37.927Z,17.56
2019-01-11T02:56:38.243Z,17.56
2019-01-11T02:57:37.887Z,17.55
2019-01-11T02:58:37.588Z,17.54
2019-01-11T02:59:37.942Z,17.54
2019-01-11T03:00:37.794Z,17.55
2019-01-11T03:01:37.648Z,17.53
2019-01-11T03:02:37.596Z,17.53
2019-01-11T03:03:37.679Z,17.53
2019-01-11T03:04:37.418Z,17.53
2019-01-11T03:05:37.450Z,17.53
2019-01-11T03:06:37.810Z,17.52
2019-01-11T03:07:37.766Z,17.51
2019-01-11T03:08:37.929Z,17.5
2019-01-11T03:09:37.782Z,17.5
2019-01-11T03:10:37.701Z,17.51
2019-01-11T03:11:37.691Z,17.5
2019-01-11T03:12:37.924Z,17.5
2019-01-11T03:13:37.820Z,17.5
2019-01-11T03:14:37.655Z,17.49
2019-01-11T03:15:37.793Z,17.49
2019-01-11T03:16:37.588Z,17.49
2019-01-11T03:17:37.487Z,17.48
2019-01-11T03:18:37.803Z,17.49
2019-01-11T03:19:38.367Z,17.47
2019-01-11T03:20:38.109Z,17.49
2019-01-11T03:21:37.493Z,17.49
2019-01-11T03:22:38.119Z,17.48
2019-01-11T03:23:37.734Z,17.47
2019-01-11T03:24:37.557Z,17.47
2019-01-11T03:25:37.352Z,17.47
2019-01-11T03:26:37.542Z,17.46
2019-01-11T03:27:37.569Z,17.47
2019-01-11T03:28:37.393Z,17.47
2019-01-11T03:29:37.606Z,17.48
2019-01-11T03:30:38.049Z,17.46
2019-01-11T03:31:37.535Z,17.45
2019-01-11T03:32:37.659Z,17.45
2019-01-11T03:33:37.856Z,17.44
2019-01-11T03:34:37.864Z,17.46
2019-01-11T03:35:37.819Z,17.44
2019-01-11T03:36:37.348Z,17.44
2019-01-11T03:37:37.691Z,17.44
2019-01-11T03:38:37.624Z,17.44
2019-01-11T03:39:37.544Z,17.44
2019-01-11T03:40:37.535Z,17.43
2019-01-11T03:41:37.499Z,17.44
2019-01-11T03:42:37.643Z,17.43
2019-01-11T03:43:37.808Z,17.44
2019-01-11T03:44:37.734Z,17.43
2019-01-11T03:45:37.880Z,17.42
2019-01-11T03:46:37.689Z,17.43
2019-01-11T03:47:38.193Z,17.42
2019-01-11T03:48:37.525Z,17.42
2019-01-11T03:49:37.898Z,17.43
2019-01-11T03:50:37.604Z,17.41
2019-01-11T03:51:37.456Z,17.41
2019-01-11T03:52:38.186Z,17.4
2019-01-11T03:53:37.462Z,17.41
2019-01-11T03:54:37.942Z,17.41
2019-01-11T03:55:37.937Z,17.41
2019-01-11T03:56:38.069Z,17.4
2019-01-11T03:57:37.499Z,17.41
2019-01-11T03:58:37.665Z,17.4
2019-01-11T03:59:37.862Z,17.4
2019-01-11T04:00:38.782Z,17.4
2019-01-11T04:01:37.670Z,17.38
2019-01-11T04:02:38.018Z,17.39
2019-01-11T04:03:37.556Z,17.38
2019-01-11T04:04:37.566Z,17.4
2019-01-11T04:05:38.007Z,17.39
2019-01-11T04:06:37.803Z,17.38
2019-01-11T04:07:37.686Z,17.37
2019-01-11T04:08:37.533Z,17.36
2019-01-11T04:09:37.742Z,17.37
2019-01-11T04:10:37.400Z,17.36
2019-01-11T04:11:38.176Z,17.37
2019-01-11T04:12:38.124Z,17.37
2019-01-11T04:13:39.359Z,17.36
2019-01-11T04:14:37.589Z,17.35
2019-01-11T04:15:37.769Z,17.35
2019-01-11T04:16:38.811Z,17.36
2019-01-11T04:17:37.731Z,17.35
2019-01-11T04:18:37.919Z,17.34
2019-01-11T04:19:38.005Z,17.34
2019-01-11T04:20:37.506Z,17.37
2019-01-11T04:21:37.734Z,17.34
2019-01-11T04:22:37.860Z,17.34
2019-01-11T04:23:37.748Z,17.33
2019-01-11T04:24:37.528Z,17.33
2019-01-11T04:25:37.500Z,17.33
2019-01-11T04:26:37.657Z,17.33
2019-01-11T04:27:37.602Z,17.34
2019-01-11T04:28:37.325Z,17.32
2019-01-11T04:29:37.682Z,17.34
2019-01-11T04:30:37.852Z,17.34
2019-01-11T04:31:37.778Z,17.32
2019-01-11T04:32:37.560Z,17.33
2019-01-11T04:33:37.562Z,17.32
2019-01-11T04:34:37.817Z,17.34
2019-01-11T04:35:37.933Z,17.33
2019-01-11T04:36:37.580Z,17.32
2019-01-11T04:37:37.616Z,17.32
2019-01-11T04:38:37.645Z,17.32
2019-01-11T04:39:37.592Z,17.31
2019-01-11T04:40:37.926Z,17.33
2019-01-11T04:41:38.065Z,17.32
2019-01-11T04:42:37.423Z,17.33
2019-01-11T04:43:37.866Z,17.33
2019-01-11T04:44:38.471Z,17.33
2019-01-11T04:45:38.103Z,17.34
2019-01-11T04:46:37.835Z,17.35
2019-01-11T04:47:37.811Z,17.35
2019-01-11T04:48:37.467Z,17.37
2019-01-11T04:49:37.602Z,17.36
2019-01-11T04:50:38.102Z,17.37
2019-01-11T04:51:37.914Z,17.38
2019-01-11T04:52:37.558Z,17.39
2019-01-11T04:53:37.749Z,17.4
2019-01-11T04:54:37.383Z,17.41
2019-01-11T04:55:37.636Z,17.41
2019-01-11T04:56:37.766Z,17.43
2019-01-11T04:57:38.192Z,17.44
2019-01-11T04:58:37.518Z,17.45
2019-01-11T04:59:38.241Z,17.46
2019-01-11T05:00:37.855Z,17.47
2019-01-11T05:01:37.586Z,17.48
2019-01-11T05:02:37.498Z,17.48
2019-01-11T05:03:37.608Z,17.49
2019-01-11T05:04:37.783Z,17.5
2019-01-11T05:05:37.535Z,17.52
2019-01-11T05:06:37.881Z,17.54
2019-01-11T05:07:37.846Z,17.55
2019-01-11T05:08:37.742Z,17.57
2019-01-11T05:09:37.687Z,17.58
2019-01-11T05:10:37.510Z,17.6
2019-01-11T05:11:37.568Z,17.62
2019-01-11T05:12:37.505Z,17.62
2019-01-11T05:13:37.414Z,17.64
2019-01-11T05:14:38.122Z,17.67
2019-01-11T05:15:37.619Z,17.68
2019-01-11T05:16:39.501Z,17.7
2019-01-11T05:17:38.358Z,17.72
2019-01-11T05:18:37.369Z,17.73
2019-01-11T05:19:37.818Z,17.75
2019-01-11T05:20:37.285Z,17.78
2019-01-11T05:21:37.337Z,17.79
2019-01-11T05:22:37.776Z,17.81
2019-01-11T05:23:37.624Z,17.83
2019-01-11T05:24:37.526Z,17.85
2019-01-11T05:25:37.547Z,17.89
2019-01-11T05:26:37.476Z,17.89
2019-01-11T05:27:37.654Z,17.91
2019-01-11T05:28:37.578Z,17.94
2019-01-11T05:29:37.700Z,17.96
2019-01-11T05:30:37.656Z,17.96
2019-01-11T05:31:39.417Z,17.99
2019-01-11T05:32:37.307Z,18
2019-01-11T05:33:37.816Z,18.03
2019-01-11T05:34:37.786Z,18.04
2019-01-11T05:35:37.486Z,18.07
2019-01-11T05:36:37.913Z,18.07
2019-01-11T05:37:37.691Z,18.1
2019-01-11T05:38:37.309Z,18.12
2019-01-11T05:39:37.712Z,18.12
2019-01-11T05:40:37.554Z,18.15
2019-01-11T05:41:37.624Z,18.18
2019-01-11T05:42:37.894Z,18.18
2019-01-11T05:43:37.748Z,18.19
2019-01-11T05:44:37.850Z,18.2
2019-01-11T05:45:37.641Z,18.22
2019-01-11T05:46:37.517Z,18.23
2019-01-11T05:47:38.289Z,18.26
2019-01-11T05:48:37.834Z,18.26
2019-01-11T05:49:37.445Z,18.27
2019-01-11T05:50:38.090Z,18.28
2019-01-11T05:51:38.323Z,18.3
2019-01-11T05:52:37.772Z,18.31
2019-01-11T05:53:37.777Z,18.33
2019-01-11T05:54:37.784Z,18.34
2019-01-11T05:55:37.738Z,18.35
2019-01-11T05:56:37.829Z,18.37
2019-01-11T05:57:38.040Z,18.37
2019-01-11T05:58:37.477Z,18.4
2019-01-11T05:59:37.733Z,18.42
2019-01-11T06:00:37.401Z,18.41
2019-01-11T06:01:38.231Z,18.43
2019-01-11T06:02:39.333Z,18.44
2019-01-11T06:03:38.069Z,18.45
2019-01-11T06:04:38.986Z,18.48
2019-01-11T06:05:37.911Z,18.48
2019-01-11T06:06:37.601Z,18.5
2019-01-11T06:07:37.273Z,18.51
2019-01-11T06:08:37.809Z,18.54
2019-01-11T06:09:37.990Z,18.55
2019-01-11T06:10:37.539Z,18.55
2019-01-11T06:11:37.572Z,18.56
2019-01-11T06:12:37.408Z,18.57
2019-01-11T06:13:37.715Z,18.58
2019-01-11T06:14:37.586Z,18.59
2019-01-11T06:15:38.259Z,18.6
2019-01-11T06:16:37.628Z,18.6
2019-01-11T06:17:37.631Z,18.62
2019-01-11T06:18:37.652Z,18.61
2019-01-11T06:19:37.584Z,18.63
2019-01-11T06:20:37.568Z,18.64
2019-01-11T06:21:37.618Z,18.66
2019-01-11T06:22:37.599Z,18.66
2019-01-11T06:23:37.619Z,18.68
2019-01-11T06:24:37.607Z,18.68
2019-01-11T06:25:37.624Z,18.7
2019-01-11T06:26:37.435Z,18.72
2019-01-11T06:27:38.154Z,18.71
2019-01-11T06:28:37.623Z,18.71
2019-01-11T06:29:37.392Z,18.75
2019-01-11T06:30:37.791Z,18.76
2019-01-11T06:31:37.880Z,18.77
2019-01-11T06:32:37.977Z,18.78
2019-01-11T06:33:38.962Z,18.8
2019-01-11T06:34:37.236Z,18.8
2019-01-11T06:35:37.903Z,18.82
2019-01-11T06:36:37.592Z,18.85
2019-01-11T06:37:37.690Z,18.86
2019-01-11T06:38:37.539Z,18.88
2019-01-11T06:39:37.222Z,18.9
2019-01-11T06:40:37.820Z,18.91
2019-01-11T06:41:37.442Z,18.92
2019-01-11T06:42:37.642Z,18.92
2019-01-11T06:43:37.616Z,18.93
2019-01-11T06:44:38.974Z,18.97
2019-01-11T06:45:37.765Z,18.99
2019-01-11T06:46:38.161Z,18.99
2019-01-11T06:47:38.991Z,18.99
2019-01-11T06:48:37.311Z,19
2019-01-11T06:49:37.481Z,19
2019-01-11T06:50:37.722Z,19.01
2019-01-11T06:51:37.914Z,19.03
2019-01-11T06:52:37.527Z,19.04
2019-01-11T06:53:37.798Z,19.06
2019-01-11T06:54:38.012Z,19.07
2019-01-11T06:55:37.927Z,19.07
2019-01-11T06:56:39.229Z,19.09
2019-01-11T06:57:37.609Z,19.09
2019-01-11T06:58:37.651Z,19.1
2019-01-11T06:59:37.468Z,19.11
2019-01-11T07:00:37.362Z,19.11
2019-01-11T07:01:37.578Z,19.14
2019-01-11T07:02:37.733Z,19.14
2019-01-11T07:03:37.865Z,19.16
2019-01-11T07:04:37.467Z,19.15
2019-01-11T07:05:37.739Z,19.15
2019-01-11T07:06:37.855Z,19.17
2019-01-11T07:07:37.306Z,19.18
2019-01-11T07:08:37.803Z,19.18
2019-01-11T07:09:37.935Z,19.19
2019-01-11T07:10:37.458Z,19.18
2019-01-11T07:11:37.782Z,19.2
2019-01-11T07:12:37.296Z,19.2
2019-01-11T07:13:37.519Z,19.21
2019-01-11T07:14:38.364Z,19.24
2019-01-11T07:15:37.676Z,19.21
2019-01-11T07:16:37.328Z,19.23
2019-01-11T07:17:37.761Z,19.22
2019-01-11T07:18:37.600Z,19.24
2019-01-11T07:19:37.627Z,19.25
2019-01-11T07:20:42.834Z,19.24
2019-01-11T07:21:37.730Z,19.26
2019-01-11T07:22:38.045Z,19.25
2019-01-11T07:23:37.560Z,19.26
2019-01-11T07:24:37.737Z,19.27
2019-01-11T07:25:37.816Z,19.27
2019-01-11T07:26:37.295Z,19.27
2019-01-11T07:27:37.567Z,19.27
2019-01-11T07:28:37.764Z,19.28
2019-01-11T07:29:37.939Z,19.28
2019-01-11T07:30:37.792Z,19.29
2019-01-11T07:31:37.868Z,19.28
2019-01-11T07:32:37.590Z,19.28
2019-01-11T07:33:37.343Z,19.3
2019-01-11T07:34:38.170Z,19.3
2019-01-11T07:35:37.587Z,19.29
2019-01-11T07:36:37.909Z,19.29
2019-01-11T07:37:39.247Z,19.3
2019-01-11T07:38:37.332Z,19.32
2019-01-11T07:39:39.434Z,19.31
2019-01-11T07:40:37.386Z,19.3
2019-01-11T07:41:38.400Z,19.31
2019-01-11T07:42:37.740Z,19.31
2019-01-11T07:43:37.786Z,19.31
2019-01-11T07:44:37.585Z,19.3
2019-01-11T07:45:37.220Z,19.31
2019-01-11T07:46:37.797Z,19.3
2019-01-11T07:47:37.888Z,19.31
2019-01-11T07:48:37.246Z,19.31
2019-01-11T07:49:37.795Z,19.31
2019-01-11T07:50:37.927Z,19.31
2019-01-11T07:51:37.729Z,19.32
2019-01-11T07:52:40.024Z,19.32
2019-01-11T07:53:37.622Z,19.32
2019-01-11T07:54:37.631Z,19.31
2019-01-11T07:55:37.627Z,19.31
2019-01-11T07:56:37.595Z,19.31
2019-01-11T07:57:37.301Z,19.34
2019-01-11T07:58:37.747Z,19.35
2019-01-11T07:59:37.670Z,19.34
2019-01-11T08:00:37.564Z,19.39
2019-01-11T08:01:37.659Z,19.38
2019-01-11T08:02:37.376Z,19.36
2019-01-11T08:03:37.341Z,19.36
2019-01-11T08:04:37.802Z,19.36
2019-01-11T08:05:37.682Z,19.36
2019-01-11T08:06:37.876Z,19.35
2019-01-11T08:07:37.606Z,19.33
2019-01-11T08:08:37.335Z,19.34
2019-01-11T08:09:37.551Z,19.35
2019-01-11T08:10:37.215Z,19.34
2019-01-11T08:11:37.880Z,19.36
2019-01-11T08:12:37.681Z,19.34
2019-01-11T08:13:37.797Z,19.34
2019-01-11T08:14:37.412Z,19.34
2019-01-11T08:15:37.566Z,19.35
2019-01-11T08:16:37.763Z,19.35
2019-01-11T08:17:37.464Z,19.37
2019-01-11T08:18:38.540Z,19.38
2019-01-11T08:19:37.385Z,19.4
2019-01-11T08:20:37.372Z,19.41
2019-01-11T08:21:37.818Z,19.43
2019-01-11T08:22:37.290Z,19.41
2019-01-11T08:23:37.787Z,19.41
2019-01-11T08:24:37.626Z,19.42
2019-01-11T08:25:37.647Z,19.45
2019-01-11T08:26:37.869Z,19.44
2019-01-11T08:27:37.354Z,19.47
2019-01-11T08:28:37.304Z,19.5
2019-01-11T08:29:37.975Z,19.5
2019-01-11T08:30:37.895Z,19.5
2019-01-11T08:31:37.709Z,19.51
2019-01-11T08:32:37.597Z,19.52
2019-01-11T08:33:37.706Z,19.52
2019-01-11T08:34:37.742Z,19.53
2019-01-11T08:35:37.908Z,19.52
2019-01-11T08:36:37.448Z,19.52
2019-01-11T08:37:38.367Z,19.53
2019-01-11T08:38:37.770Z,19.55
2019-01-11T08:39:38.405Z,19.53
2019-01-11T08:40:38.193Z,19.51
2019-01-11T08:41:37.402Z,19.54
2019-01-11T08:42:37.893Z,19.54
2019-01-11T08:43:37.293Z,19.54
2019-01-11T08:44:37.433Z,19.54
2019-01-11T08:45:38.356Z,19.55
2019-01-11T08:46:37.595Z,19.57
2019-01-11T08:47:37.943Z,19.56
2019-01-11T08:48:37.943Z,19.56
2019-01-11T08:49:39.267Z,19.57
2019-01-11T08:50:37.732Z,19.57
2019-01-11T08:51:37.713Z,19.58
2019-01-11T08:52:38.049Z,19.56
2019-01-11T08:53:38.055Z,19.54
2019-01-11T08:54:37.381Z,19.53
2019-01-11T08:55:37.759Z,19.53
2019-01-11T08:56:37.900Z,19.52
2019-01-11T08:57:37.248Z,19.52
2019-01-11T08:58:37.832Z,19.5
2019-01-11T08:59:37.267Z,19.5
2019-01-11T09:00:37.449Z,19.49
2019-01-11T09:01:37.713Z,19.49
2019-01-11T09:02:37.602Z,19.49
2019-01-11T09:03:37.605Z,19.48
2019-01-11T09:04:37.781Z,19.48
2019-01-11T09:05:37.344Z,19.46
2019-01-11T09:06:37.843Z,19.46
2019-01-11T09:07:37.375Z,19.45
2019-01-11T09:08:37.658Z,19.44
2019-01-11T09:09:37.826Z,19.44
2019-01-11T09:10:37.270Z,19.44
2019-01-11T09:11:37.675Z,19.44
2019-01-11T09:12:37.315Z,19.43
2019-01-11T09:13:37.428Z,19.43
2019-01-11T09:14:37.482Z,19.43
2019-01-11T09:15:37.686Z,19.41
2019-01-11T09:16:37.707Z,19.41
2019-01-11T09:17:38.217Z,19.41
2019-01-11T09:18:37.489Z,19.41
2019-01-11T09:19:37.824Z,19.39
2019-01-11T09:20:37.605Z,19.39
2019-01-11T09:21:41.537Z,19.37
2019-01-11T09:22:37.625Z,19.36
2019-01-11T09:23:39.402Z,19.34
2019-01-11T09:24:37.286Z,19.34
2019-01-11T09:25:37.787Z,19.33
2019-01-11T09:26:37.577Z,19.32
2019-01-11T09:27:37.653Z,19.32
2019-01-11T09:28:37.416Z,19.3
2019-01-11T09:29:37.331Z,19.29
2019-01-11T09:30:37.342Z,19.29
2019-01-11T09:31:39.363Z,19.28
2019-01-11T09:32:38.133Z,19.29
2019-01-11T09:33:38.089Z,19.26
2019-01-11T09:34:37.317Z,19.27
2019-01-11T09:35:37.839Z,19.27
2019-01-11T09:36:37.427Z,19.26
2019-01-11T09:37:37.641Z,19.25
2019-01-11T09:38:37.680Z,19.25
2019-01-11T09:39:37.538Z,19.24
2019-01-11T09:40:37.294Z,19.24
2019-01-11T09:41:37.787Z,19.23
2019-01-11T09:42:37.323Z,19.23
2019-01-11T09:43:37.783Z,19.23
2019-01-11T09:44:37.703Z,19.22
2019-01-11T09:45:37.355Z,19.22
2019-01-11T09:46:37.717Z,19.21
2019-01-11T09:47:37.734Z,19.22
2019-01-11T09:48:37.647Z,19.21
2019-01-11T09:49:37.630Z,19.21
2019-01-11T09:50:37.740Z,19.21
2019-01-11T09:51:37.298Z,19.2
2019-01-11T09:52:37.740Z,19.19
2019-01-11T09:53:37.286Z,19.23
2019-01-11T09:54:37.872Z,19.23
2019-01-11T09:55:37.791Z,19.25
2019-01-11T09:56:37.336Z,19.24
2019-01-11T09:57:37.961Z,19.27
2019-01-11T09:58:37.349Z,19.27
2019-01-11T09:59:37.722Z,19.28
2019-01-11T10:00:37.730Z,19.29
2019-01-11T10:01:38.158Z,19.3
2019-01-11T10:02:37.671Z,19.31
2019-01-11T10:03:37.752Z,19.31
2019-01-11T10:04:37.549Z,19.32
2019-01-11T10:05:37.767Z,19.34
2019-01-11T10:06:37.212Z,19.34
2019-01-11T10:07:37.790Z,19.35
2019-01-11T10:08:37.881Z,19.36
2019-01-11T10:09:37.503Z,19.37
2019-01-11T10:10:37.711Z,19.37
2019-01-11T10:11:37.108Z,19.38
2019-01-11T10:12:37.590Z,19.39
2019-01-11T10:13:37.812Z,19.4
2019-01-11T10:14:37.643Z,19.41
2019-01-11T10:15:37.491Z,19.4
2019-01-11T10:16:37.276Z,19.42
2019-01-11T10:17:37.666Z,19.41
2019-01-11T10:18:37.658Z,19.43
2019-01-11T10:19:37.609Z,19.46
2019-01-11T10:20:37.677Z,19.46
2019-01-11T10:21:37.746Z,19.47
2019-01-11T10:22:37.416Z,19.49
2019-01-11T10:23:37.758Z,19.53
2019-01-11T10:24:37.355Z,19.52
2019-01-11T10:25:37.337Z,19.52
2019-01-11T10:26:37.523Z,19.54
2019-01-11T10:27:37.336Z,19.55
2019-01-11T10:28:38.236Z,19.56
2019-01-11T10:29:37.851Z,19.55
2019-01-11T10:30:39.212Z,19.55
2019-01-11T10:31:37.400Z,19.55
2019-01-11T10:32:37.290Z,19.58
2019-01-11T10:33:37.644Z,19.56
2019-01-11T10:34:37.881Z,19.57
2019-01-11T10:35:37.761Z,19.57
2019-01-11T10:36:37.458Z,19.59
2019-01-11T10:37:37.677Z,19.59
2019-01-11T10:38:37.478Z,19.6
2019-01-11T10:39:37.662Z,19.6
2019-01-11T10:40:37.691Z,19.61
2019-01-11T10:41:37.765Z,19.63
2019-01-11T10:42:39.678Z,19.62
2019-01-11T10:43:39.227Z,19.61
2019-01-11T10:44:37.612Z,19.65
2019-01-11T10:45:37.373Z,19.64
2019-01-11T10:46:37.320Z,19.65
2019-01-11T10:47:37.746Z,19.64
2019-01-11T10:48:37.669Z,19.65
2019-01-11T10:49:37.637Z,19.64
2019-01-11T10:50:37.914Z,19.67
2019-01-11T10:51:38.114Z,19.66
2019-01-11T10:52:37.333Z,19.67
2019-01-11T10:53:37.120Z,19.67
2019-01-11T10:54:37.803Z,19.68
2019-01-11T10:55:37.620Z,19.67
2019-01-11T10:56:37.432Z,19.67
2019-01-11T10:57:37.403Z,19.67
2019-01-11T10:58:37.363Z,19.67
2019-01-11T10:59:37.474Z,19.67
2019-01-11T11:00:37.425Z,19.69
2019-01-11T11:01:37.288Z,19.69
2019-01-11T11:02:37.411Z,19.68
2019-01-11T11:03:39.369Z,19.69
2019-01-11T11:04:37.250Z,19.68
2019-01-11T11:05:37.243Z,19.68
2019-01-11T11:06:37.416Z,19.68
2019-01-11T11:07:37.696Z,19.68
2019-01-11T11:08:37.602Z,19.69
2019-01-11T11:09:37.512Z,19.69
2019-01-11T11:10:37.325Z,19.69
2019-01-11T11:11:37.659Z,19.69
2019-01-11T11:12:37.145Z,19.7
2019-01-11T11:13:37.786Z,19.7
2019-01-11T11:14:37.731Z,19.7
2019-01-11T11:15:37.638Z,19.7
2019-01-11T11:16:37.658Z,19.71
2019-01-11T11:17:38.075Z,19.71
2019-01-11T11:18:37.396Z,19.72
2019-01-11T11:19:37.360Z,19.71
2019-01-11T11:20:38.218Z,19.71
2019-01-11T11:21:37.583Z,19.72
2019-01-11T11:22:37.830Z,19.72
2019-01-11T11:23:37.328Z,19.72
2019-01-11T11:24:37.700Z,19.73
2019-01-11T11:25:37.659Z,19.74
2019-01-11T11:26:37.498Z,19.71
2019-01-11T11:27:37.373Z,19.73
2019-01-11T11:28:37.758Z,19.71
2019-01-11T11:29:37.536Z,19.72
2019-01-11T11:30:37.794Z,19.72
2019-01-11T11:31:37.128Z,19.73
2019-01-11T11:32:37.661Z,19.71
2019-01-11T11:33:37.678Z,19.71
2019-01-11T11:34:37.134Z,19.71
2019-01-11T11:35:37.362Z,19.72
2019-01-11T11:36:37.702Z,19.72
2019-01-11T11:37:37.331Z,19.71
2019-01-11T11:38:37.711Z,19.73
2019-01-11T11:39:37.302Z,19.72
2019-01-11T11:40:37.383Z,19.73
2019-01-11T11:41:37.844Z,19.73
2019-01-11T11:42:37.307Z,19.72
2019-01-11T11:43:37.419Z,19.72
2019-01-11T11:44:37.128Z,19.72
2019-01-11T11:45:37.643Z,19.72
2019-01-11T11:46:37.563Z,19.73
2019-01-11T11:47:37.672Z,19.72
2019-01-11T11:48:38.084Z,19.7
2019-01-11T11:49:37.316Z,19.69
2019-01-11T11:50:37.375Z,19.68
2019-01-11T11:51:41.186Z,19.67
2019-01-11T11:52:38.002Z,19.67
2019-01-11T11:53:38.199Z,19.67
2019-01-11T11:54:37.455Z,19.66
2019-01-11T11:55:37.366Z,19.65
2019-01-11T11:56:37.637Z,19.65
2019-01-11T11:57:37.567Z,19.64
2019-01-11T11:58:37.674Z,19.64
2019-01-11T11:59:37.679Z,19.64
2019-01-11T12:00:37.842Z,19.62
2019-01-11T12:01:38.309Z,19.62
2019-01-11T12:02:38.275Z,19.61
2019-01-11T12:03:37.930Z,19.61
2019-01-11T12:04:37.590Z,19.61
2019-01-11T12:05:37.444Z,19.62
2019-01-11T12:06:37.288Z,19.6
2019-01-11T12:07:37.806Z,19.6
2019-01-11T12:08:37.859Z,19.59
2019-01-11T12:09:37.775Z,19.59
2019-01-11T12:10:37.614Z,19.59
2019-01-11T12:11:37.359Z,19.58
2019-01-11T12:12:37.983Z,19.58
2019-01-11T12:13:37.672Z,19.58
2019-01-11T12:14:37.309Z,19.57
2019-01-11T12:15:37.662Z,19.56
2019-01-11T12:16:37.339Z,19.55
2019-01-11T12:17:37.757Z,19.53
2019-01-11T12:18:37.684Z,19.52
2019-01-11T12:19:37.453Z,19.52
2019-01-11T12:20:37.279Z,19.52
2019-01-11T12:21:37.263Z,19.51
2019-01-11T12:22:37.405Z,19.5
2019-01-11T12:23:37.248Z,19.49
2019-01-11T12:24:37.413Z,19.48
2019-01-11T12:25:37.393Z,19.48
2019-01-11T12:26:37.321Z,19.47
2019-01-11T12:27:37.414Z,19.46
2019-01-11T12:28:37.537Z,19.45
2019-01-11T12:29:37.353Z,19.45
2019-01-11T12:30:37.698Z,19.43
2019-01-11T12:31:37.126Z,19.44
2019-01-11T12:32:38.006Z,19.43
2019-01-11T12:33:37.335Z,19.41
2019-01-11T12:34:37.275Z,19.43
2019-01-11T12:35:37.709Z,19.42
2019-01-11T12:36:37.450Z,19.41
2019-01-11T12:37:37.341Z,19.41
2019-01-11T12:38:38.378Z,19.4
2019-01-11T12:39:37.289Z,19.4
2019-01-11T12:40:37.735Z,19.4
2019-01-11T12:41:38.093Z,19.4
2019-01-11T12:42:37.244Z,19.38
2019-01-11T12:43:37.680Z,19.39
2019-01-11T12:44:37.518Z,19.38
2019-01-11T12:45:37.709Z,19.39
2019-01-11T12:46:37.662Z,19.38
2019-01-11T12:47:37.183Z,19.38
2019-01-11T12:48:37.336Z,19.37
2019-01-11T12:49:37.484Z,19.37
2019-01-11T12:50:38.065Z,19.37
2019-01-11T12:51:37.838Z,19.38
2019-01-11T12:52:37.824Z,19.41
2019-01-11T12:53:37.402Z,19.41
2019-01-11T12:54:37.933Z,19.44
2019-01-11T12:55:38.078Z,19.44